createdAt,value
2022-12-15T00:03:25.942Z,0.90
2022-12-15T00:08:46.607Z,0.80
2022-12-15T00:14:06.816Z,0.70
2022-12-15T00:19:28.896Z,0.60
2022-12-15T00:24:49.589Z,0.70
2022-12-15T00:30:10.329Z,0.80
2022-12-15T00:35:32.174Z,0.80
2022-12-15T00:40:35.063Z,0.40
2022-12-15T00:45:54.795Z,0.50
2022-12-15T00:50:59.126Z,0.60
2022-12-15T00:56:19.575Z,0.50
2022-12-15T01:01:40.044Z,0.50
2022-12-15T01:07:02.218Z,0.40
2022-12-15T01:12:23.129Z,0.30
2022-12-15T01:17:43.781Z,0.40
2022-12-15T01:22:48.893Z,0.40
2022-12-15T01:27:52.145Z,0.30
2022-12-15T01:32:55.083Z,0.20
2022-12-15T01:37:59.328Z,0.30
2022-12-15T01:43:02.500Z,0.40
2022-12-15T01:48:08.624Z,0.40
2022-12-15T01:53:15.311Z,0.50
2022-12-15T01:58:20.087Z,0.50
2022-12-15T02:03:24.041Z,0.60
2022-12-15T02:08:28.848Z,0.60
2022-12-15T02:13:40.345Z,0.70
2022-12-15T02:18:53.486Z,0.40
2022-12-15T02:24:27.870Z,0.20
2022-12-15T02:29:55.092Z,0.20
2022-12-15T02:35:04.396Z,0.30
2022-12-15T02:40:10.262Z,0.40
2022-12-15T02:45:16.270Z,0.50
2022-12-15T02:50:39.058Z,0.70
2022-12-15T02:55:50.800Z,0.70
2022-12-15T03:00:59.034Z,0.60
2022-12-15T03:06:05.243Z,0.60
2022-12-15T03:11:08.383Z,0.70
2022-12-15T03:16:11.305Z,0.70
2022-12-15T03:21:15.607Z,0.70
2022-12-15T03:26:18.537Z,0.70
2022-12-15T03:31:21.429Z,0.90
2022-12-15T03:36:25.735Z,1.00
2022-12-15T03:41:28.668Z,1.00
2022-12-15T03:46:31.617Z,1.00
2022-12-15T03:51:35.899Z,0.80
2022-12-15T03:56:38.743Z,0.80
2022-12-15T04:01:47.702Z,0.60
2022-12-15T04:06:52.045Z,0.50
2022-12-15T04:11:54.969Z,0.30
2022-12-15T04:16:58.078Z,0.60
2022-12-15T04:22:04.543Z,0.70
2022-12-15T04:27:25.082Z,0.80
2022-12-15T04:32:49.961Z,0.80
2022-12-15T04:38:12.613Z,0.60
2022-12-15T04:43:33.806Z,0.50
2022-12-15T04:48:54.224Z,0.70
2022-12-15T04:54:15.826Z,0.70
2022-12-15T04:59:36.687Z,0.70
2022-12-15T05:04:57.059Z,0.60
2022-12-15T05:10:18.723Z,0.60
2022-12-15T05:15:39.240Z,0.80
2022-12-15T05:20:59.969Z,0.90
2022-12-15T05:26:21.651Z,0.90
2022-12-15T05:31:41.962Z,0.80
2022-12-15T05:36:44.841Z,0.40
2022-12-15T05:41:49.054Z,0.60
2022-12-15T05:46:52.195Z,0.60
2022-12-15T05:51:55.122Z,0.70
2022-12-15T05:56:59.378Z,0.80
2022-12-15T06:02:02.368Z,0.90
2022-12-15T06:07:05.340Z,0.80
2022-12-15T06:12:09.738Z,0.80
2022-12-15T06:17:13.348Z,0.80
2022-12-15T06:22:16.274Z,0.60
2022-12-15T06:27:20.625Z,0.60
2022-12-15T06:32:23.545Z,0.60
2022-12-15T06:37:26.414Z,0.50
2022-12-15T06:42:30.621Z,0.60
2022-12-15T06:47:33.517Z,0.60
2022-12-15T06:52:36.376Z,0.60
2022-12-15T06:57:40.620Z,0.60
2022-12-15T07:02:43.883Z,0.60
2022-12-15T07:07:53.591Z,0.60
2022-12-15T07:12:58.677Z,0.70
2022-12-15T07:18:01.849Z,0.80
2022-12-15T07:23:07.951Z,0.90
2022-12-15T07:28:12.409Z,0.90
2022-12-15T07:33:15.780Z,1.00
2022-12-15T07:38:18.660Z,1.10
2022-12-15T07:43:23.925Z,1.10
2022-12-15T07:48:27.270Z,1.10
2022-12-15T07:53:30.639Z,1.10
2022-12-15T07:58:35.406Z,1.10
2022-12-15T08:03:39.452Z,1.20
2022-12-15T08:08:44.466Z,1.00
2022-12-15T08:14:09.208Z,1.10
2022-12-15T08:19:15.192Z,1.10
2022-12-15T08:24:19.311Z,1.20
2022-12-15T08:34:47.711Z,1.30
2022-12-15T08:39:50.602Z,1.40
2022-12-15T08:44:54.862Z,1.40
2022-12-15T08:49:57.741Z,1.50
2022-12-15T08:55:00.616Z,1.40
2022-12-15T09:00:05.924Z,1.60
2022-12-15T09:05:09.685Z,1.40
2022-12-15T09:10:12.733Z,1.60
2022-12-15T09:15:17.210Z,1.70
2022-12-15T09:20:20.988Z,1.80
2022-12-15T09:25:23.872Z,1.70
2022-12-15T09:30:28.203Z,1.70
2022-12-15T09:35:31.246Z,1.70
2022-12-15T09:40:34.227Z,1.60
2022-12-15T09:45:43.414Z,1.90
2022-12-15T09:50:49.259Z,2.00
2022-12-15T09:55:58.463Z,2.00
2022-12-15T10:01:11.046Z,2.00
2022-12-15T10:11:50.222Z,2.00
2022-12-15T10:17:03.637Z,1.70
2022-12-15T10:22:06.729Z,1.90
2022-12-15T10:27:28.129Z,2.10
2022-12-15T10:32:50.466Z,2.00
2022-12-15T10:37:54.515Z,2.30
2022-12-15T10:42:57.339Z,2.00
2022-12-15T10:48:03.968Z,2.10
2022-12-15T10:53:09.827Z,2.20
2022-12-15T10:58:18.342Z,2.00
2022-12-15T11:03:24.950Z,2.00
2022-12-15T11:08:30.101Z,2.00
2022-12-15T11:13:34.959Z,2.10
2022-12-15T11:18:45.961Z,2.00
2022-12-15T11:23:58.801Z,1.80
2022-12-15T11:29:07.441Z,1.70
2022-12-15T11:34:15.753Z,1.90
2022-12-15T11:39:34.415Z,1.90
2022-12-15T11:44:45.246Z,1.80
2022-12-15T11:50:15.190Z,1.90
2022-12-15T11:55:32.161Z,2.10
2022-12-15T12:00:43.337Z,2.30
2022-12-15T12:06:11.346Z,2.40
2022-12-15T12:11:17.040Z,2.40
2022-12-15T12:16:30.107Z,2.70
2022-12-15T12:21:39.789Z,3.10
2022-12-15T12:26:48.537Z,3.20
2022-12-15T12:32:05.247Z,3.20
2022-12-15T12:37:17.868Z,3.30
2022-12-15T12:42:27.367Z,3.30
2022-12-15T12:47:34.376Z,3.30
2022-12-15T12:52:39.312Z,3.20
2022-12-15T12:57:43.542Z,3.00
2022-12-15T13:03:16.313Z,3.00
2022-12-15T13:08:50.942Z,2.90
2022-12-15T13:13:55.072Z,2.90
2022-12-15T13:19:01.919Z,2.80
2022-12-15T13:24:07.088Z,2.60
2022-12-15T13:29:13.017Z,2.70
2022-12-15T13:34:28.504Z,2.50
2022-12-15T13:45:24.141Z,2.40
2022-12-15T13:50:40.290Z,2.50
2022-12-15T13:56:02.009Z,2.50
2022-12-15T14:01:20.541Z,2.40
2022-12-15T14:06:24.844Z,2.70
2022-12-15T14:17:01.149Z,2.90
2022-12-15T14:22:04.182Z,3.40
2022-12-15T14:27:07.085Z,3.20
2022-12-15T14:32:11.862Z,3.10
2022-12-15T14:37:20.925Z,3.10
2022-12-15T14:42:27.641Z,3.10
2022-12-15T14:47:34.683Z,3.10
2022-12-15T14:52:42.177Z,3.10
2022-12-15T14:57:46.626Z,3.10
2022-12-15T15:02:50.998Z,3.00
2022-12-15T15:03:11.192Z,2.00
2022-12-15T15:07:56.888Z,3.10
2022-12-15T15:13:00.024Z,3.20
2022-12-15T15:18:04.301Z,3.10
2022-12-15T15:23:17.690Z,3.00
2022-12-15T15:28:25.878Z,2.90
2022-12-15T15:33:30.141Z,2.90
2022-12-15T15:38:35.612Z,3.00
2022-12-15T15:43:38.795Z,2.90
2022-12-15T15:48:45.979Z,2.90
2022-12-15T15:53:49.172Z,2.80
2022-12-15T15:58:52.022Z,2.80
2022-12-15T16:03:56.296Z,2.80
2022-12-15T16:09:00.580Z,2.80
2022-12-15T16:14:03.621Z,2.80
2022-12-15T16:19:08.950Z,2.80
2022-12-15T16:24:16.864Z,2.70
2022-12-15T16:29:22.026Z,2.60
2022-12-15T16:34:26.363Z,2.60
2022-12-15T16:39:32.716Z,2.40
2022-12-15T16:44:35.661Z,2.40
2022-12-15T16:49:40.595Z,2.30
2022-12-15T16:54:46.141Z,2.30
2022-12-15T16:59:49.751Z,2.20
2022-12-15T17:04:55.651Z,2.20
2022-12-15T17:15:28.479Z,2.60
2022-12-15T17:20:33.356Z,2.40
2022-12-15T17:26:18.107Z,2.40
2022-12-15T17:31:01.633Z,2.20
2022-12-15T17:36:14.548Z,2.00
2022-12-15T17:41:42.490Z,1.80
2022-12-15T17:46:48.356Z,1.90
2022-12-15T17:51:55.889Z,1.80
2022-12-15T17:56:58.960Z,1.60
2022-12-15T18:02:02.073Z,1.70
2022-12-15T18:07:06.768Z,1.90
2022-12-15T18:12:18.886Z,1.80
2022-12-15T18:17:22.372Z,2.00
2022-12-15T18:22:26.857Z,2.00
2022-12-15T18:27:30.643Z,2.00
2022-12-15T18:32:38.245Z,2.00
2022-12-15T18:37:42.597Z,1.90
2022-12-15T18:42:51.526Z,1.70
2022-12-15T18:47:55.250Z,1.70
2022-12-15T18:53:04.112Z,1.60
2022-12-15T18:58:09.300Z,1.50
2022-12-15T19:03:16.327Z,1.50
2022-12-15T19:08:25.558Z,1.60
2022-12-15T19:13:31.472Z,1.80
2022-12-15T19:18:52.149Z,1.80
2022-12-15T19:23:56.634Z,1.70
2022-12-15T19:29:00.207Z,1.50
2022-12-15T19:34:03.327Z,1.30
2022-12-15T19:39:09.367Z,1.60
2022-12-15T19:44:15.021Z,1.50
2022-12-15T19:49:17.980Z,1.40
2022-12-15T19:54:23.519Z,1.40
2022-12-15T19:59:28.259Z,1.50
2022-12-15T20:04:52.922Z,1.60
2022-12-15T20:09:58.275Z,1.60
2022-12-15T20:15:01.408Z,1.60
2022-12-15T20:20:05.333Z,1.60
2022-12-15T20:25:16.210Z,1.70
2022-12-15T20:30:21.297Z,1.70
2022-12-15T20:35:34.513Z,1.80
2022-12-15T20:40:38.893Z,1.80
2022-12-15T20:46:04.074Z,1.80
2022-12-15T20:51:27.634Z,1.80
2022-12-15T20:56:34.019Z,1.80
2022-12-15T21:01:38.948Z,1.70
2022-12-15T21:06:43.969Z,1.70
2022-12-15T21:11:49.192Z,1.60
2022-12-15T21:16:52.218Z,1.70
2022-12-15T21:21:55.945Z,1.80
2022-12-15T21:27:01.469Z,1.80
2022-12-15T21:32:17.519Z,2.40
2022-12-15T21:37:25.358Z,2.10
2022-12-15T21:42:29.654Z,1.80
2022-12-15T21:47:47.212Z,1.60
2022-12-15T21:52:50.141Z,1.70
2022-12-15T21:57:56.626Z,1.70
2022-12-15T22:02:59.629Z,1.80
2022-12-15T22:08:14.918Z,1.80
2022-12-15T22:13:20.767Z,1.80
2022-12-15T22:18:24.815Z,1.80
2022-12-15T22:23:27.765Z,1.80
2022-12-15T22:28:34.087Z,1.80
2022-12-15T22:33:37.338Z,1.70
2022-12-15T22:38:40.641Z,1.60
2022-12-15T22:43:46.228Z,1.50
2022-12-15T22:48:49.537Z,1.50
2022-12-15T22:53:53.278Z,1.60
2022-12-15T22:59:02.605Z,1.70
2022-12-15T23:04:06.825Z,1.50
2022-12-15T23:09:09.677Z,1.50
2022-12-15T23:14:16.119Z,1.50
2022-12-15T23:19:24.469Z,1.50
2022-12-15T23:24:27.807Z,1.60
2022-12-15T23:29:32.201Z,1.60
2022-12-15T23:34:35.088Z,1.60
2022-12-15T23:39:38.029Z,1.60
2022-12-15T23:44:42.627Z,1.70
2022-12-15T23:49:45.541Z,1.80
2022-12-15T23:54:49.184Z,1.80
2022-12-15T23:59:54.770Z,1.90
